sensor_id;sensor_type;location;lat;lon;timestamp;temperature;humidity
14884;DHT22;7534;50.762;7.000;2023-08-01T06:23:59;19.10;99.90
14884;DHT22;7534;50.762;7.000;2023-08-01T06:26:25;19.00;99.90
14884;DHT22;7534;50.762;7.000;2023-08-01T06:28:51;18.90;99.90
14884;DHT22;7534;50.762;7.000;2023-08-01T06:31:19;18.90;99.90
14884;DHT22;7534;50.762;7.000;2023-08-01T06:33:45;18.90;99.90
14884;DHT22;7534;50.762;7.000;2023-08-01T06:36:11;19.00;99.90
14884;DHT22;7534;50.762;7.000;2023-08-01T06:38:38;18.90;99.90
14884;DHT22;7534;50.762;7.000;2023-08-01T06:41:04;18.80;99.90
14884;DHT22;7534;50.762;7.000;2023-08-01T06:43:30;19.10;99.90
14884;DHT22;7534;50.762;7.000;2023-08-01T06:45:56;19.60;99.90
14884;DHT22;7534;50.762;7.000;2023-08-01T06:48:21;20.10;99.90
14884;DHT22;7534;50.762;7.000;2023-08-01T06:50:47;20.30;99.90
14884;DHT22;7534;50.762;7.000;2023-08-01T06:53:13;20.40;99.90
14884;DHT22;7534;50.762;7.000;2023-08-01T06:58:07;22.60;99.90
14884;DHT22;7534;50.762;7.000;2023-08-01T07:00:35;24.40;99.90
14884;DHT22;7534;50.762;7.000;2023-08-01T07:03:01;25.10;99.90
14884;DHT22;7534;50.762;7.000;2023-08-01T07:05:29;25.50;99.90
14884;DHT22;7534;50.762;7.000;2023-08-01T07:07:55;25.80;99.90
14884;DHT22;7534;50.762;7.000;2023-08-01T07:39:39;20.20;99.90
14884;DHT22;7534;50.762;7.000;2023-08-01T07:42:04;20.20;99.90
14884;DHT22;7534;50.762;7.000;2023-08-01T07:44:30;20.90;99.90
14884;DHT22;7534;50.762;7.000;2023-08-01T08:38:18;30.10;74.50
14884;DHT22;7534;50.762;7.000;2023-08-01T08:41:08;30.20;72.00
14884;DHT22;7534;50.762;7.000;2023-08-01T08:43:35;28.70;75.10
14884;DHT22;7534;50.762;7.000;2023-08-01T08:46:03;28.00;77.70
14884;DHT22;7534;50.762;7.000;2023-08-01T08:48:31;27.20;81.70
14884;DHT22;7534;50.762;7.000;2023-08-01T08:51:01;26.30;87.50
14884;DHT22;7534;50.762;7.000;2023-08-01T08:53:30;27.10;86.20
14884;DHT22;7534;50.762;7.000;2023-08-01T08:55:59;28.20;84.20
14884;DHT22;7534;50.762;7.000;2023-08-01T08:58:26;29.70;75.10
14884;DHT22;7534;50.762;7.000;2023-08-01T09:00:54;29.90;73.20
14884;DHT22;7534;50.762;7.000;2023-08-01T09:03:20;29.10;73.20
14884;DHT22;7534;50.762;7.000;2023-08-01T09:05:50;30.30;69.60
14884;DHT22;7534;50.762;7.000;2023-08-01T09:08:19;30.40;68.30
14884;DHT22;7534;50.762;7.000;2023-08-01T09:10:47;31.30;69.30
14884;DHT22;7534;50.762;7.000;2023-08-01T09:13:13;32.70;65.10
14884;DHT22;7534;50.762;7.000;2023-08-01T09:15:42;31.90;63.90
14884;DHT22;7534;50.762;7.000;2023-08-01T09:18:10;32.20;62.30
14884;DHT22;7534;50.762;7.000;2023-08-01T09:20:42;32.10;58.00
14884;DHT22;7534;50.762;7.000;2023-08-01T09:23:10;33.40;58.10
14884;DHT22;7534;50.762;7.000;2023-08-01T09:25:39;33.10;59.20
14884;DHT22;7534;50.762;7.000;2023-08-01T09:28:16;32.40;57.90
14884;DHT22;7534;50.762;7.000;2023-08-01T09:30:46;31.90;57.90
14884;DHT22;7534;50.762;7.000;2023-08-01T09:33:23;30.90;60.40
14884;DHT22;7534;50.762;7.000;2023-08-01T09:35:52;30.90;62.20
14884;DHT22;7534;50.762;7.000;2023-08-01T09:45:54;27.50;76.90
14884;DHT22;7534;50.762;7.000;2023-08-01T09:48:25;28.00;76.40
14884;DHT22;7534;50.762;7.000;2023-08-01T09:50:52;29.30;71.60
14884;DHT22;7534;50.762;7.000;2023-08-01T09:53:28;27.50;74.00
14884;DHT22;7534;50.762;7.000;2023-08-01T09:55:55;27.40;78.20
14884;DHT22;7534;50.762;7.000;2023-08-01T09:58:22;29.00;73.60
14884;DHT22;7534;50.762;7.000;2023-08-01T10:00:51;30.00;69.80
14884;DHT22;7534;50.762;7.000;2023-08-01T10:03:17;29.80;66.60
14884;DHT22;7534;50.762;7.000;2023-08-01T10:05:44;28.30;71.40
14884;DHT22;7534;50.762;7.000;2023-08-01T10:08:11;27.20;76.60
14884;DHT22;7534;50.762;7.000;2023-08-01T10:10:38;26.80;78.50
14884;DHT22;7534;50.762;7.000;2023-08-01T10:13:05;26.80;79.90
14884;DHT22;7534;50.762;7.000;2023-08-01T10:15:31;27.40;79.30
14884;DHT22;7534;50.762;7.000;2023-08-01T10:17:57;28.40;76.80
14884;DHT22;7534;50.762;7.000;2023-08-01T10:20:24;28.00;76.30
14884;DHT22;7534;50.762;7.000;2023-08-01T10:22:51;28.10;76.30
14884;DHT22;7534;50.762;7.000;2023-08-01T10:25:18;27.50;78.40
14884;DHT22;7534;50.762;7.000;2023-08-01T10:28:00;26.80;82.00
14884;DHT22;7534;50.762;7.000;2023-08-01T10:30:28;27.20;81.80
14884;DHT22;7534;50.762;7.000;2023-08-01T10:32:59;27.90;80.20
14884;DHT22;7534;50.762;7.000;2023-08-01T10:35:36;27.20;77.50
14884;DHT22;7534;50.762;7.000;2023-08-01T10:38:10;25.90;80.20
14884;DHT22;7534;50.762;7.000;2023-08-01T10:40:43;25.30;87.40
14884;DHT22;7534;50.762;7.000;2023-08-01T10:43:25;23.90;95.90
14884;DHT22;7534;50.762;7.000;2023-08-01T10:46:08;22.70;99.90
14884;DHT22;7534;50.762;7.000;2023-08-01T10:48:51;22.30;99.90
14884;DHT22;7534;50.762;7.000;2023-08-01T10:51:20;23.20;99.90
14884;DHT22;7534;50.762;7.000;2023-08-01T10:53:46;24.00;99.90
14884;DHT22;7534;50.762;7.000;2023-08-01T10:56:17;24.40;99.90
14884;DHT22;7534;50.762;7.000;2023-08-01T10:58:43;25.00;99.90
14884;DHT22;7534;50.762;7.000;2023-08-01T11:01:10;24.80;99.90
14884;DHT22;7534;50.762;7.000;2023-08-01T11:03:39;25.20;99.90
14884;DHT22;7534;50.762;7.000;2023-08-01T11:06:07;25.40;99.90
14884;DHT22;7534;50.762;7.000;2023-08-01T11:08:37;25.10;98.50
14884;DHT22;7534;50.762;7.000;2023-08-01T11:11:05;24.80;98.60
14884;DHT22;7534;50.762;7.000;2023-08-01T11:13:33;24.60;97.90
14884;DHT22;7534;50.762;7.000;2023-08-01T11:16:03;24.60;97.70
14884;DHT22;7534;50.762;7.000;2023-08-01T11:18:45;24.50;97.20
14884;DHT22;7534;50.762;7.000;2023-08-01T11:21:11;24.40;97.80
14884;DHT22;7534;50.762;7.000;2023-08-01T11:23:36;24.80;97.10
14884;DHT22;7534;50.762;7.000;2023-08-01T11:26:08;24.90;95.80
14884;DHT22;7534;50.762;7.000;2023-08-01T11:28:34;24.70;95.80
14884;DHT22;7534;50.762;7.000;2023-08-01T11:31:00;24.80;96.50
14884;DHT22;7534;50.762;7.000;2023-08-01T11:33:26;24.80;96.60
14884;DHT22;7534;50.762;7.000;2023-08-01T11:35:56;24.50;95.10
14884;DHT22;7534;50.762;7.000;2023-08-01T11:38:27;24.40;95.60
14884;DHT22;7534;50.762;7.000;2023-08-01T11:40:56;25.00;95.90
14884;DHT22;7534;50.762;7.000;2023-08-01T11:43:23;25.20;93.60
14884;DHT22;7534;50.762;7.000;2023-08-01T11:45:53;25.00;92.50
14884;DHT22;7534;50.762;7.000;2023-08-01T11:48:23;24.90;92.60
14884;DHT22;7534;50.762;7.000;2023-08-01T11:50:59;24.80;93.40
14884;DHT22;7534;50.762;7.000;2023-08-01T11:53:26;24.80;93.60
14884;DHT22;7534;50.762;7.000;2023-08-01T11:55:53;24.90;94.20
14884;DHT22;7534;50.762;7.000;2023-08-01T11:58:32;25.20;94.70
14884;DHT22;7534;50.762;7.000;2023-08-01T12:01:10;25.10;94.90
14884;DHT22;7534;50.762;7.000;2023-08-01T12:03:47;24.50;94.40
14884;DHT22;7534;50.762;7.000;2023-08-01T12:06:19;24.00;96.00
14884;DHT22;7534;50.762;7.000;2023-08-01T12:08:50;24.40;97.00
14884;DHT22;7534;50.762;7.000;2023-08-01T12:11:24;24.60;96.20
14884;DHT22;7534;50.762;7.000;2023-08-01T12:14:23;25.00;95.60
14884;DHT22;7534;50.762;7.000;2023-08-01T12:16:49;25.50;94.90
14884;DHT22;7534;50.762;7.000;2023-08-01T12:19:19;25.40;92.90
14884;DHT22;7534;50.762;7.000;2023-08-01T12:21:46;25.30;93.50
14884;DHT22;7534;50.762;7.000;2023-08-01T12:24:12;25.10;93.70
14884;DHT22;7534;50.762;7.000;2023-08-01T12:26:38;25.20;93.70
14884;DHT22;7534;50.762;7.000;2023-08-01T12:29:03;25.80;93.30
14884;DHT22;7534;50.762;7.000;2023-08-01T12:31:30;25.90;92.10
14884;DHT22;7534;50.762;7.000;2023-08-01T12:33:56;25.50;91.70
14884;DHT22;7534;50.762;7.000;2023-08-01T12:36:22;25.00;92.50
14884;DHT22;7534;50.762;7.000;2023-08-01T12:38:54;24.40;93.40
14884;DHT22;7534;50.762;7.000;2023-08-01T12:41:21;24.00;95.30
14884;DHT22;7534;50.762;7.000;2023-08-01T12:43:46;23.50;96.90
14884;DHT22;7534;50.762;7.000;2023-08-01T12:46:12;23.30;98.80
14884;DHT22;7534;50.762;7.000;2023-08-01T12:48:38;23.90;99.90
14884;DHT22;7534;50.762;7.000;2023-08-01T12:51:04;24.20;97.10
14884;DHT22;7534;50.762;7.000;2023-08-01T12:53:30;23.90;95.40
14884;DHT22;7534;50.762;7.000;2023-08-01T12:55:56;23.90;96.30
14884;DHT22;7534;50.762;7.000;2023-08-01T12:58:21;24.00;96.90
14884;DHT22;7534;50.762;7.000;2023-08-01T13:00:48;24.30;95.90
14884;DHT22;7534;50.762;7.000;2023-08-01T13:03:13;24.70;94.60
14884;DHT22;7534;50.762;7.000;2023-08-01T13:05:40;25.00;93.90
14884;DHT22;7534;50.762;7.000;2023-08-01T13:08:07;25.10;94.10
14884;DHT22;7534;50.762;7.000;2023-08-01T13:10:36;25.50;93.10
14884;DHT22;7534;50.762;7.000;2023-08-01T13:13:03;25.60;92.00
14884;DHT22;7534;50.762;7.000;2023-08-01T13:15:29;26.00;91.40
14884;DHT22;7534;50.762;7.000;2023-08-01T13:17:56;26.30;90.50
14884;DHT22;7534;50.762;7.000;2023-08-01T13:20:22;26.20;90.60
14884;DHT22;7534;50.762;7.000;2023-08-01T13:22:51;26.20;88.70
14884;DHT22;7534;50.762;7.000;2023-08-01T13:25:18;26.10;90.70
14884;DHT22;7534;50.762;7.000;2023-08-01T13:27:44;26.00;87.90
14884;DHT22;7534;50.762;7.000;2023-08-01T13:30:10;25.70;87.80
14884;DHT22;7534;50.762;7.000;2023-08-01T13:32:39;25.60;90.10
14884;DHT22;7534;50.762;7.000;2023-08-01T13:35:06;25.80;90.60
14884;DHT22;7534;50.762;7.000;2023-08-01T13:37:31;25.90;90.90
14884;DHT22;7534;50.762;7.000;2023-08-01T13:39:58;26.10;89.10
14884;DHT22;7534;50.762;7.000;2023-08-01T13:42:23;25.90;89.20
14884;DHT22;7534;50.762;7.000;2023-08-01T13:44:49;25.50;86.20
14884;DHT22;7534;50.762;7.000;2023-08-01T13:47:15;25.10;85.70
14884;DHT22;7534;50.762;7.000;2023-08-01T13:49:41;25.20;89.00
14884;DHT22;7534;50.762;7.000;2023-08-01T13:52:06;25.10;89.30
14884;DHT22;7534;50.762;7.000;2023-08-01T13:54:32;25.30;87.00
14884;DHT22;7534;50.762;7.000;2023-08-01T13:56:58;25.50;88.30
14884;DHT22;7534;50.762;7.000;2023-08-01T13:59:24;25.80;83.20
14884;DHT22;7534;50.762;7.000;2023-08-01T14:01:52;25.80;83.70
14884;DHT22;7534;50.762;7.000;2023-08-01T14:04:18;25.50;81.40
14884;DHT22;7534;50.762;7.000;2023-08-01T14:06:44;25.70;86.10
14884;DHT22;7534;50.762;7.000;2023-08-01T14:09:10;25.50;81.80
14884;DHT22;7534;50.762;7.000;2023-08-01T14:11:36;25.10;83.60
14884;DHT22;7534;50.762;7.000;2023-08-01T14:14:05;24.60;85.60
14884;DHT22;7534;50.762;7.000;2023-08-01T14:16:31;24.20;87.90
14884;DHT22;7534;50.762;7.000;2023-08-01T14:19:00;23.60;95.30
14884;DHT22;7534;50.762;7.000;2023-08-01T14:21:26;22.80;97.50
14884;DHT22;7534;50.762;7.000;2023-08-01T14:23:52;22.20;99.90
14884;DHT22;7534;50.762;7.000;2023-08-01T14:26:18;22.00;96.50
14884;DHT22;7534;50.762;7.000;2023-08-01T14:28:43;22.00;95.70
14884;DHT22;7534;50.762;7.000;2023-08-01T14:31:10;21.90;96.60
14884;DHT22;7534;50.762;7.000;2023-08-01T14:33:36;21.90;94.60
14884;DHT22;7534;50.762;7.000;2023-08-01T14:36:07;22.20;95.20
14884;DHT22;7534;50.762;7.000;2023-08-01T14:38:34;22.40;94.80
14884;DHT22;7534;50.762;7.000;2023-08-01T14:41:02;22.50;94.10
14884;DHT22;7534;50.762;7.000;2023-08-01T14:43:28;22.20;94.10
14884;DHT22;7534;50.762;7.000;2023-08-01T14:45:53;22.30;94.40
14884;DHT22;7534;50.762;7.000;2023-08-01T14:48:19;22.30;93.70
14884;DHT22;7534;50.762;7.000;2023-08-01T14:50:49;22.40;94.50
14884;DHT22;7534;50.762;7.000;2023-08-01T14:53:15;22.90;94.90
14884;DHT22;7534;50.762;7.000;2023-08-01T14:55:41;23.70;94.90
14884;DHT22;7534;50.762;7.000;2023-08-01T14:58:06;24.30;91.90
14884;DHT22;7534;50.762;7.000;2023-08-01T15:00:36;24.60;93.40
14884;DHT22;7534;50.762;7.000;2023-08-01T15:03:02;24.80;91.10
14884;DHT22;7534;50.762;7.000;2023-08-01T15:05:28;24.90;88.20
14884;DHT22;7534;50.762;7.000;2023-08-01T15:07:54;25.00;90.30
14884;DHT22;7534;50.762;7.000;2023-08-01T15:10:20;25.30;88.40
14884;DHT22;7534;50.762;7.000;2023-08-01T15:12:46;25.20;84.20
14884;DHT22;7534;50.762;7.000;2023-08-01T15:15:11;24.60;84.60
14884;DHT22;7534;50.762;7.000;2023-08-01T15:17:37;24.10;85.70
14884;DHT22;7534;50.762;7.000;2023-08-01T15:20:22;23.70;86.30
14884;DHT22;7534;50.762;7.000;2023-08-01T15:22:57;23.50;87.40
14884;DHT22;7534;50.762;7.000;2023-08-01T15:25:23;23.00;90.20
14884;DHT22;7534;50.762;7.000;2023-08-01T15:27:49;22.70;91.30
14884;DHT22;7534;50.762;7.000;2023-08-01T15:30:14;22.30;93.00
14884;DHT22;7534;50.762;7.000;2023-08-01T15:32:40;21.80;95.40
14884;DHT22;7534;50.762;7.000;2023-08-01T15:35:06;21.10;98.00
14884;DHT22;7534;50.762;7.000;2023-08-01T15:37:32;20.80;99.90
14884;DHT22;7534;50.762;7.000;2023-08-01T15:39:58;20.50;99.90
14884;DHT22;7534;50.762;7.000;2023-08-01T15:42:23;20.40;99.90
14884;DHT22;7534;50.762;7.000;2023-08-01T15:44:49;20.40;99.90
14884;DHT22;7534;50.762;7.000;2023-08-01T15:47:15;20.50;99.90
14884;DHT22;7534;50.762;7.000;2023-08-01T15:49:41;20.70;99.90
14884;DHT22;7534;50.762;7.000;2023-08-01T15:52:07;20.50;99.90
14884;DHT22;7534;50.762;7.000;2023-08-01T15:54:33;20.20;99.90
14884;DHT22;7534;50.762;7.000;2023-08-01T15:56:59;19.90;99.90
14884;DHT22;7534;50.762;7.000;2023-08-01T15:59:25;19.80;99.90
14884;DHT22;7534;50.762;7.000;2023-08-01T16:01:51;19.60;99.90
14884;DHT22;7534;50.762;7.000;2023-08-01T16:04:16;19.40;99.90
14884;DHT22;7534;50.762;7.000;2023-08-01T16:06:42;19.40;99.90
14884;DHT22;7534;50.762;7.000;2023-08-01T16:09:08;19.60;99.90
14884;DHT22;7534;50.762;7.000;2023-08-01T16:11:34;19.60;99.90
14884;DHT22;7534;50.762;7.000;2023-08-01T16:14:00;19.80;99.90
14884;DHT22;7534;50.762;7.000;2023-08-01T16:16:26;19.80;99.90
14884;DHT22;7534;50.762;7.000;2023-08-01T16:18:51;19.70;99.90
14884;DHT22;7534;50.762;7.000;2023-08-01T16:21:17;19.70;99.90
14884;DHT22;7534;50.762;7.000;2023-08-01T16:23:43;19.60;99.90
14884;DHT22;7534;50.762;7.000;2023-08-01T16:26:09;19.40;99.90
14884;DHT22;7534;50.762;7.000;2023-08-01T16:28:35;19.30;99.90
14884;DHT22;7534;50.762;7.000;2023-08-01T16:31:00;19.10;99.90
14884;DHT22;7534;50.762;7.000;2023-08-01T16:33:26;19.00;99.90
14884;DHT22;7534;50.762;7.000;2023-08-01T16:35:52;19.00;99.90
14884;DHT22;7534;50.762;7.000;2023-08-01T16:38:18;19.00;99.90
14884;DHT22;7534;50.762;7.000;2023-08-01T16:40:43;19.20;99.90
14884;DHT22;7534;50.762;7.000;2023-08-01T16:43:09;19.30;99.90
14884;DHT22;7534;50.762;7.000;2023-08-01T16:45:35;19.40;99.90
14884;DHT22;7534;50.762;7.000;2023-08-01T16:48:01;19.60;99.90
14884;DHT22;7534;50.762;7.000;2023-08-01T16:50:27;19.80;99.90
14884;DHT22;7534;50.762;7.000;2023-08-01T16:52:53;19.90;99.90
14884;DHT22;7534;50.762;7.000;2023-08-01T16:55:20;20.10;99.90
14884;DHT22;7534;50.762;7.000;2023-08-01T16:57:46;20.30;99.90
14884;DHT22;7534;50.762;7.000;2023-08-01T17:00:13;20.30;99.90
14884;DHT22;7534;50.762;7.000;2023-08-01T17:02:41;20.40;99.90
14884;DHT22;7534;50.762;7.000;2023-08-01T17:05:07;20.50;99.90
14884;DHT22;7534;50.762;7.000;2023-08-01T17:07:33;20.50;99.90
14884;DHT22;7534;50.762;7.000;2023-08-01T17:10:01;20.40;99.90
14884;DHT22;7534;50.762;7.000;2023-08-01T17:12:28;20.20;99.90
14884;DHT22;7534;50.762;7.000;2023-08-01T17:14:54;20.10;99.90
14884;DHT22;7534;50.762;7.000;2023-08-01T17:17:19;19.80;99.90
14884;DHT22;7534;50.762;7.000;2023-08-01T17:19:47;19.80;99.90
14884;DHT22;7534;50.762;7.000;2023-08-01T17:22:13;19.50;99.90
14884;DHT22;7534;50.762;7.000;2023-08-01T17:24:39;19.20;99.90
14884;DHT22;7534;50.762;7.000;2023-08-01T17:27:06;18.80;99.90
14884;DHT22;7534;50.762;7.000;2023-08-01T17:29:32;18.60;99.90
14884;DHT22;7534;50.762;7.000;2023-08-01T17:31:58;18.60;99.90
14884;DHT22;7534;50.762;7.000;2023-08-01T17:34:23;18.40;99.90
14884;DHT22;7534;50.762;7.000;2023-08-01T17:36:49;18.50;99.90
14884;DHT22;7534;50.762;7.000;2023-08-01T17:39:15;18.50;99.90
14884;DHT22;7534;50.762;7.000;2023-08-01T17:41:41;18.60;99.90
14884;DHT22;7534;50.762;7.000;2023-08-01T17:44:08;18.60;99.90
14884;DHT22;7534;50.762;7.000;2023-08-01T17:46:35;18.50;99.90
14884;DHT22;7534;50.762;7.000;2023-08-01T17:49:00;18.30;99.90
14884;DHT22;7534;50.762;7.000;2023-08-01T17:51:26;18.00;99.90
14884;DHT22;7534;50.762;7.000;2023-08-01T17:53:52;17.90;99.90
14884;DHT22;7534;50.762;7.000;2023-08-01T17:56:17;17.90;99.90
14884;DHT22;7534;50.762;7.000;2023-08-01T17:58:44;17.60;99.90
14884;DHT22;7534;50.762;7.000;2023-08-01T18:01:10;17.40;99.90
14884;DHT22;7534;50.762;7.000;2023-08-01T18:03:36;17.40;99.90
14884;DHT22;7534;50.762;7.000;2023-08-01T18:06:11;17.50;99.90
14884;DHT22;7534;50.762;7.000;2023-08-01T18:08:39;17.50;99.90
14884;DHT22;7534;50.762;7.000;2023-08-01T18:11:11;17.50;99.90
14884;DHT22;7534;50.762;7.000;2023-08-01T18:13:42;17.60;99.90
14884;DHT22;7534;50.762;7.000;2023-08-01T18:16:08;17.60;99.90
14884;DHT22;7534;50.762;7.000;2023-08-01T18:18:42;17.80;99.90
14884;DHT22;7534;50.762;7.000;2023-08-01T18:21:08;17.90;99.90
14884;DHT22;7534;50.762;7.000;2023-08-01T18:23:35;17.90;99.90
14884;DHT22;7534;50.762;7.000;2023-08-01T18:26:02;17.80;99.90
14884;DHT22;7534;50.762;7.000;2023-08-01T18:28:30;18.00;99.90
14884;DHT22;7534;50.762;7.000;2023-08-01T18:30:57;18.10;99.90
14884;DHT22;7534;50.762;7.000;2023-08-01T18:33:32;18.00;99.90
14884;DHT22;7534;50.762;7.000;2023-08-01T18:35:58;18.00;99.90
14884;DHT22;7534;50.762;7.000;2023-08-01T18:38:26;18.00;99.90
14884;DHT22;7534;50.762;7.000;2023-08-01T18:40:52;18.20;99.90
14884;DHT22;7534;50.762;7.000;2023-08-01T18:43:18;18.10;99.90
14884;DHT22;7534;50.762;7.000;2023-08-01T18:45:55;18.00;99.90
14884;DHT22;7534;50.762;7.000;2023-08-01T18:48:21;18.10;99.90
14884;DHT22;7534;50.762;7.000;2023-08-01T18:50:46;18.10;99.90
14884;DHT22;7534;50.762;7.000;2023-08-01T18:53:12;18.10;99.90
14884;DHT22;7534;50.762;7.000;2023-08-01T18:55:38;18.00;99.90
14884;DHT22;7534;50.762;7.000;2023-08-01T18:58:04;17.90;99.90
14884;DHT22;7534;50.762;7.000;2023-08-01T19:00:31;18.00;99.90
14884;DHT22;7534;50.762;7.000;2023-08-01T19:03:00;17.80;99.90
14884;DHT22;7534;50.762;7.000;2023-08-01T19:05:26;17.70;99.90
14884;DHT22;7534;50.762;7.000;2023-08-01T19:07:55;17.70;99.90
14884;DHT22;7534;50.762;7.000;2023-08-01T19:10:22;17.60;99.90
14884;DHT22;7534;50.762;7.000;2023-08-01T19:12:48;17.70;99.90
14884;DHT22;7534;50.762;7.000;2023-08-01T19:15:14;17.60;99.90
14884;DHT22;7534;50.762;7.000;2023-08-01T19:17:42;17.60;99.90
14884;DHT22;7534;50.762;7.000;2023-08-01T19:20:08;17.80;99.90
14884;DHT22;7534;50.762;7.000;2023-08-01T19:22:36;17.80;99.90
14884;DHT22;7534;50.762;7.000;2023-08-01T19:25:02;17.80;99.90
14884;DHT22;7534;50.762;7.000;2023-08-01T19:27:29;17.80;99.90
14884;DHT22;7534;50.762;7.000;2023-08-01T19:29:55;17.90;99.90
14884;DHT22;7534;50.762;7.000;2023-08-01T19:32:21;17.80;99.90
14884;DHT22;7534;50.762;7.000;2023-08-01T19:34:49;17.80;99.90
14884;DHT22;7534;50.762;7.000;2023-08-01T19:37:17;17.90;99.90
14884;DHT22;7534;50.762;7.000;2023-08-01T19:39:43;18.00;99.90
14884;DHT22;7534;50.762;7.000;2023-08-01T19:42:10;18.00;99.90
14884;DHT22;7534;50.762;7.000;2023-08-01T19:44:36;18.00;99.90
14884;DHT22;7534;50.762;7.000;2023-08-01T19:47:04;18.00;99.90
14884;DHT22;7534;50.762;7.000;2023-08-01T19:49:30;17.80;99.90
14884;DHT22;7534;50.762;7.000;2023-08-01T19:51:58;17.80;99.90
14884;DHT22;7534;50.762;7.000;2023-08-01T19:54:25;17.70;99.90
14884;DHT22;7534;50.762;7.000;2023-08-01T19:56:51;17.70;99.90
14884;DHT22;7534;50.762;7.000;2023-08-01T19:59:18;17.50;99.90
14884;DHT22;7534;50.762;7.000;2023-08-01T20:01:47;17.40;99.90
14884;DHT22;7534;50.762;7.000;2023-08-01T20:04:13;17.30;99.90
14884;DHT22;7534;50.762;7.000;2023-08-01T20:06:39;17.20;99.90
14884;DHT22;7534;50.762;7.000;2023-08-01T20:09:04;17.10;99.90
14884;DHT22;7534;50.762;7.000;2023-08-01T20:11:30;17.10;99.90
14884;DHT22;7534;50.762;7.000;2023-08-01T20:13:57;17.10;99.90
14884;DHT22;7534;50.762;7.000;2023-08-01T20:16:22;17.00;99.90
14884;DHT22;7534;50.762;7.000;2023-08-01T20:18:48;17.10;99.90
14884;DHT22;7534;50.762;7.000;2023-08-01T20:21:14;17.00;99.90
14884;DHT22;7534;50.762;7.000;2023-08-01T20:23:39;17.00;99.90
14884;DHT22;7534;50.762;7.000;2023-08-01T20:26:05;17.00;99.90
14884;DHT22;7534;50.762;7.000;2023-08-01T20:28:31;17.10;99.90
14884;DHT22;7534;50.762;7.000;2023-08-01T20:31:01;17.00;99.90
14884;DHT22;7534;50.762;7.000;2023-08-01T20:33:28;17.00;99.90
14884;DHT22;7534;50.762;7.000;2023-08-01T20:35:59;17.00;99.90
14884;DHT22;7534;50.762;7.000;2023-08-01T20:38:26;16.90;99.90
14884;DHT22;7534;50.762;7.000;2023-08-01T20:40:52;16.90;99.90
14884;DHT22;7534;50.762;7.000;2023-08-01T20:43:19;16.90;99.90
14884;DHT22;7534;50.762;7.000;2023-08-01T20:45:49;16.80;99.90
14884;DHT22;7534;50.762;7.000;2023-08-01T20:48:15;16.70;99.90
14884;DHT22;7534;50.762;7.000;2023-08-01T20:50:41;16.70;99.90
14884;DHT22;7534;50.762;7.000;2023-08-01T20:53:07;16.70;99.90
14884;DHT22;7534;50.762;7.000;2023-08-01T20:55:34;16.60;99.90
14884;DHT22;7534;50.762;7.000;2023-08-01T20:58:00;16.50;99.90
14884;DHT22;7534;50.762;7.000;2023-08-01T21:00:26;16.50;99.90
14884;DHT22;7534;50.762;7.000;2023-08-01T21:02:52;16.50;99.90
14884;DHT22;7534;50.762;7.000;2023-08-01T21:05:18;16.50;99.90
14884;DHT22;7534;50.762;7.000;2023-08-01T21:07:44;16.50;99.90
14884;DHT22;7534;50.762;7.000;2023-08-01T21:10:11;16.50;99.90
14884;DHT22;7534;50.762;7.000;2023-08-01T21:12:37;16.50;99.90
14884;DHT22;7534;50.762;7.000;2023-08-01T21:15:04;16.50;99.90
14884;DHT22;7534;50.762;7.000;2023-08-01T21:17:30;16.60;99.90
14884;DHT22;7534;50.762;7.000;2023-08-01T21:19:55;16.60;99.90
14884;DHT22;7534;50.762;7.000;2023-08-01T21:22:21;16.50;99.90
14884;DHT22;7534;50.762;7.000;2023-08-01T21:24:47;16.70;99.90
14884;DHT22;7534;50.762;7.000;2023-08-01T21:27:12;16.90;99.90
14884;DHT22;7534;50.762;7.000;2023-08-01T21:29:38;16.70;99.90
14884;DHT22;7534;50.762;7.000;2023-08-01T21:32:04;16.80;99.90
14884;DHT22;7534;50.762;7.000;2023-08-01T21:34:30;16.90;99.90
14884;DHT22;7534;50.762;7.000;2023-08-01T21:36:56;17.00;99.90
14884;DHT22;7534;50.762;7.000;2023-08-01T21:39:21;17.00;99.90
14884;DHT22;7534;50.762;7.000;2023-08-01T21:41:47;17.00;99.90
14884;DHT22;7534;50.762;7.000;2023-08-01T21:44:13;17.10;99.90
14884;DHT22;7534;50.762;7.000;2023-08-01T21:46:38;17.20;99.90
14884;DHT22;7534;50.762;7.000;2023-08-01T21:49:04;17.10;99.90
14884;DHT22;7534;50.762;7.000;2023-08-01T21:51:30;17.00;99.90
14884;DHT22;7534;50.762;7.000;2023-08-01T21:53:56;16.80;99.90
14884;DHT22;7534;50.762;7.000;2023-08-01T21:56:21;16.70;99.90
14884;DHT22;7534;50.762;7.000;2023-08-01T21:58:47;16.70;99.90
14884;DHT22;7534;50.762;7.000;2023-08-01T22:01:13;16.60;99.90
14884;DHT22;7534;50.762;7.000;2023-08-01T22:03:38;16.70;99.90
14884;DHT22;7534;50.762;7.000;2023-08-01T22:06:04;16.80;99.90
14884;DHT22;7534;50.762;7.000;2023-08-01T22:08:30;16.90;99.90
14884;DHT22;7534;50.762;7.000;2023-08-01T22:10:56;16.90;99.90
14884;DHT22;7534;50.762;7.000;2023-08-01T22:13:25;16.90;99.90
14884;DHT22;7534;50.762;7.000;2023-08-01T22:15:51;17.00;99.90
14884;DHT22;7534;50.762;7.000;2023-08-01T22:18:17;17.00;99.90
14884;DHT22;7534;50.762;7.000;2023-08-01T22:20:56;17.00;99.90
14884;DHT22;7534;50.762;7.000;2023-08-01T22:23:22;16.90;99.90
14884;DHT22;7534;50.762;7.000;2023-08-01T22:25:49;16.90;99.90
14884;DHT22;7534;50.762;7.000;2023-08-01T22:28:18;17.00;99.90
14884;DHT22;7534;50.762;7.000;2023-08-01T22:30:46;17.00;99.90
14884;DHT22;7534;50.762;7.000;2023-08-01T22:33:12;16.90;99.90
14884;DHT22;7534;50.762;7.000;2023-08-01T22:35:39;17.00;99.90
14884;DHT22;7534;50.762;7.000;2023-08-01T22:38:06;16.70;99.90
14884;DHT22;7534;50.762;7.000;2023-08-01T22:40:31;16.60;99.90
14884;DHT22;7534;50.762;7.000;2023-08-01T22:42:57;16.70;99.90
14884;DHT22;7534;50.762;7.000;2023-08-01T22:45:24;16.70;99.90
14884;DHT22;7534;50.762;7.000;2023-08-01T22:47:53;16.80;99.90
14884;DHT22;7534;50.762;7.000;2023-08-01T22:50:19;16.90;99.90
14884;DHT22;7534;50.762;7.000;2023-08-01T22:52:45;16.90;99.90
14884;DHT22;7534;50.762;7.000;2023-08-01T22:55:11;16.90;99.90
14884;DHT22;7534;50.762;7.000;2023-08-01T22:57:38;17.00;99.90
14884;DHT22;7534;50.762;7.000;2023-08-01T23:00:04;17.00;99.90
14884;DHT22;7534;50.762;7.000;2023-08-01T23:02:31;17.00;99.90
14884;DHT22;7534;50.762;7.000;2023-08-01T23:04:59;17.10;99.90
14884;DHT22;7534;50.762;7.000;2023-08-01T23:07:25;16.90;99.90
14884;DHT22;7534;50.762;7.000;2023-08-01T23:09:53;16.80;99.90
14884;DHT22;7534;50.762;7.000;2023-08-01T23:12:26;16.80;99.90
14884;DHT22;7534;50.762;7.000;2023-08-01T23:14:52;16.70;99.90
14884;DHT22;7534;50.762;7.000;2023-08-01T23:17:19;16.70;99.90
14884;DHT22;7534;50.762;7.000;2023-08-01T23:19:45;16.60;99.90
14884;DHT22;7534;50.762;7.000;2023-08-01T23:22:11;16.70;99.90
14884;DHT22;7534;50.762;7.000;2023-08-01T23:24:38;16.70;99.90
14884;DHT22;7534;50.762;7.000;2023-08-01T23:27:11;16.60;99.90
14884;DHT22;7534;50.762;7.000;2023-08-01T23:29:37;16.70;99.90
14884;DHT22;7534;50.762;7.000;2023-08-01T23:32:03;16.70;99.90
14884;DHT22;7534;50.762;7.000;2023-08-01T23:34:29;16.50;99.90
14884;DHT22;7534;50.762;7.000;2023-08-01T23:36:55;16.50;99.90
14884;DHT22;7534;50.762;7.000;2023-08-01T23:39:21;16.50;99.90